ASN logo
Last updated: 3 December 2021
Estado:Preliminar
Fecha:miércoles 2 diciembre 2020
Hora:08:42
Tipo:Silhouette image of generic C551 model; specific model in this crash may look slightly different
Cessna 551 Citation II/SP
Operador:Aviation Star S II LLC
Registración: N48DK
Numéro de série: 551-0095
Año de Construcción: 1978
Horas Totales de la Célula:9405
Ciclos:8313
Motores: 2 Pratt & Whitney Canada JT15D-4
Tripulación:Fatalidades: 0 / Ocupantes: 1
Pasajeros:Fatalidades: 0 / Ocupantes: 2
Total:Fatalidades: 0 / Ocupantes: 3
Daños en la Aeronave: Considerable
Consecuencias: Written off (damaged beyond repair)
Ubicación:Lufkin Angelina County Airport, TX (LFK) (   Estados Unidos de América)
Fase: Aterrizaje (LDG)
Naturaleza:Desconocido
Aeropuerto de Salida:Austin-Bergstrom International Airport, TX (AUS/KAUS), Estados Unidos de América
Aeropuerto de Llegada:Lufkin Angelina County Airport, TX (LFK/KLFK), Estados Unidos de América
Descripción:
The aircraft experienced a runway overrun upon landing on runway 16 at Angelina County Airport (LFK/KLFK), Lufkin, Texas. It crossed a road and impacted a fence. The undercarriage broke off as a result before the aircraft came to rest in a field.
The airplane sustained substantial damage and one occupant received minor injuries. Two of the three occupants onboard the aircraft were not injured.
Runway 16 is 1314 m long with a 90 m paved stopway at the end.

Fuentes:
» kcbd.com

METAR Weather report:
13:53 UTC / 07:53 local time:
KLFK 021353Z AUTO 12010KT 10SM -RA OVC090 09/05 A3012 RMK AO2 RAB30 SLP198 P0000 T00890050

14:53 UTC / 08:53 local time:
KLFK 021453Z AUTO 10006KT 6SM -RA BR BKN065 OVC080 09/07 A3015 RMK AO2 SLP208 P0009 60009 T00890067 53013


Fotos

Add your photo of this accident or aircraft

Video, social media

Map
This map shows the airport of departure and the intended destination of the flight. The line between the airports does not display the exact flight path.
Distance from Austin-Bergstrom International Airport, TX to Lufkin Angelina County Airport, TX as the crow flies is 300 km (188 miles).
Accident location: Approximate; accuracy within a few kilometers.

This information is not presented as the Flight Safety Foundation or the Aviation Safety Network’s opinion as to the cause of the accident. It is preliminary and is based on the facts as they are known at this time.
languages: languages

Share